Time;durP1;ratioP1;P1;durP2;ratioP2;P2;SDS_P1;SDS_P2;PMS_P1;PMS_P2;Temp;Humidity;BMP_temperature;BMP_pressure;BME280_temperature;BME280_humidity;BME280_pressure;Samples;Min_cycle;Max_cycle;Signal;HPM_P1;HPM_P2
2020/12/07 00:00:36;;;;;;;1.23;1.10;;;;;;;4.00;72.00;98886.25;4971849;28;20031;-72
2020/12/07 00:03:02;;;;;;;1.30;1.20;;;;;;;4.00;72.80;98883.56;4962251;28;20031;-70
2020/12/07 00:05:29;;;;;;;1.40;1.30;;;;;;;3.99;72.58;98884.63;4952523;28;20055;-75
2020/12/07 00:07:54;;;;;;;1.13;1.13;;;;;;;3.98;72.56;98887.59;4974344;28;20114;-75
2020/12/07 00:10:20;;;;;;;1.30;1.25;;;;;;;3.96;72.79;98878.94;4967688;28;20176;-76
2020/12/07 00:12:45;;;;;;;1.15;1.15;;;;;;;3.94;72.71;98884.59;4967993;28;20023;-75
2020/12/07 00:15:11;;;;;;;1.85;1.75;;;;;;;3.92;72.62;98881.31;4968360;28;20041;-74
2020/12/07 00:17:37;;;;;;;1.25;1.23;;;;;;;3.90;72.67;98885.34;4949881;28;20552;-76
2020/12/07 00:20:04;;;;;;;1.95;1.85;;;;;;;3.87;72.20;98880.47;4949518;28;20081;-73
2020/12/07 00:22:31;;;;;;;2.25;2.13;;;;;;;3.83;72.12;98886.41;4955255;28;20044;-72
2020/12/07 00:24:58;;;;;;;1.33;1.27;;;;;;;3.82;72.12;98878.53;4958412;28;20039;-73
2020/12/07 00:27:29;;;;;;;2.60;2.47;;;;;;;3.76;72.26;98879.59;4954856;28;20039;-73
2020/12/07 00:29:55;;;;;;;1.52;1.40;;;;;;;3.77;72.82;98875.81;4951063;28;20111;-73
2020/12/07 00:32:22;;;;;;;1.10;1.00;;;;;;;3.79;72.65;98881.78;4945049;28;20035;-73
2020/12/07 00:34:49;;;;;;;2.08;1.90;;;;;;;3.76;72.52;98874.19;4938947;29;20418;-71
2020/12/07 00:37:15;;;;;;;1.92;1.83;;;;;;;3.76;72.56;98874.19;4931281;28;20094;-71
2020/12/07 00:39:40;;;;;;;1.67;1.58;;;;;;;3.74;72.04;98876.31;4962465;28;20541;-72
2020/12/07 00:42:09;;;;;;;1.15;1.15;;;;;;;3.70;71.91;98865.22;4938341;28;20065;-70
2020/12/07 00:44:38;;;;;;;2.55;2.38;;;;;;;3.65;72.01;98860.59;4958051;28;20461;-70
2020/12/07 00:47:08;;;;;;;2.08;1.98;;;;;;;3.70;72.30;98859.00;4944428;28;20030;-70
2020/12/07 00:49:35;;;;;;;1.95;1.83;;;;;;;3.67;72.25;98855.72;4952702;28;20023;-71
2020/12/07 00:52:04;;;;;;;1.92;1.83;;;;;;;3.65;71.72;98852.47;4951474;28;20078;-70
2020/12/07 00:54:29;;;;;;;1.77;1.65;;;;;;;3.65;72.82;98844.38;4956830;28;20040;-71
2020/12/07 00:56:56;;;;;;;1.05;1.05;;;;;;;3.67;72.03;98844.91;4945720;28;20489;-69
2020/12/07 00:59:23;;;;;;;1.10;1.10;;;;;;;3.66;72.19;98843.31;4951245;28;20027;-71
2020/12/07 01:01:49;;;;;;;1.27;1.17;;;;;;;3.61;72.27;98840.53;4948465;28;20040;-70
2020/12/07 01:04:14;;;;;;;1.25;1.15;;;;;;;3.60;72.25;98841.63;4946700;28;20031;-71
2020/12/07 01:06:40;;;;;;;1.67;1.58;;;;;;;3.52;72.49;98834.00;4951266;28;20107;-72
2020/12/07 01:09:21;;;;;;;2.00;1.90;;;;;;;3.50;72.72;98841.53;4944121;28;20027;-76
2020/12/07 01:11:54;;;;;;;1.83;1.73;;;;;;;3.47;72.01;98836.66;4948628;28;20051;-76
2020/12/07 01:14:19;;;;;;;1.65;1.55;;;;;;;3.43;71.79;98827.41;4971939;28;20031;-76
2020/12/07 01:16:45;;;;;;;1.58;1.48;;;;;;;3.40;71.96;98822.53;4943744;28;20494;-77
2020/12/07 01:19:10;;;;;;;1.17;1.17;;;;;;;3.41;72.15;98824.97;4953801;28;20071;-76
2020/12/07 01:21:36;;;;;;;1.10;0.85;;;;;;;3.42;73.08;98828.50;4930416;29;20110;-74
2020/12/07 01:24:03;;;;;;;0.95;0.95;;;;;;;3.41;73.16;98818.78;4947218;28;20035;-76
2020/12/07 01:26:30;;;;;;;1.05;1.05;;;;;;;3.37;72.96;98817.66;4956013;28;20076;-77
2020/12/07 01:28:56;;;;;;;2.22;2.10;;;;;;;3.39;72.43;98826.31;4942464;29;20081;-78
2020/12/07 01:31:21;;;;;;;1.23;1.13;;;;;;;3.36;72.63;98824.13;4956329;28;20029;-73
2020/12/07 01:33:47;;;;;;;2.08;1.98;;;;;;;3.40;72.84;98822.53;4927699;29;20091;-75
2020/12/07 01:36:12;;;;;;;1.50;1.40;;;;;;;3.35;72.36;98814.41;4953683;28;20508;-74
2020/12/07 01:38:38;;;;;;;2.03;1.92;;;;;;;3.30;72.63;98807.88;4951703;28;20023;-75
2020/12/07 01:41:04;;;;;;;1.02;1.02;;;;;;;3.32;72.94;98811.13;4959326;28;20058;-76
2020/12/07 01:43:29;;;;;;;1.48;1.38;;;;;;;3.31;72.70;98804.13;4943142;28;20030;-73
2020/12/07 01:45:56;;;;;;;1.35;1.25;;;;;;;3.35;72.55;98809.00;4945700;28;20118;-73
2020/12/07 01:48:28;;;;;;;0.75;0.63;;;;;;;3.35;73.42;98814.41;4951832;28;20062;-72
2020/12/07 01:50:55;;;;;;;1.00;0.90;;;;;;;3.27;72.47;98796.75;4953207;28;20474;-72
2020/12/07 01:53:22;;;;;;;0.60;0.60;;;;;;;3.38;72.96;98803.06;4957329;28;20110;-71
2020/12/07 01:55:51;;;;;;;1.42;1.33;;;;;;;3.34;72.50;98801.97;4953968;28;20042;-76
2020/12/07 01:58:16;;;;;;;1.52;1.42;;;;;;;3.30;72.58;98785.44;4951978;28;20078;-73
2020/12/07 02:00:45;;;;;;;1.15;1.05;;;;;;;3.39;72.21;98789.31;4946187;28;20444;-74
2020/12/07 02:03:20;;;;;;;1.58;1.48;;;;;;;3.35;73.09;98782.78;4954401;28;20410;-75
2020/12/07 02:05:46;;;;;;;1.17;1.08;;;;;;;3.39;72.82;98789.31;4951849;28;20095;-75
2020/12/07 02:08:19;;;;;;;1.23;0.98;;;;;;;3.37;72.94;98785.22;4961500;28;20055;-74
2020/12/07 02:10:45;;;;;;;1.60;1.50;;;;;;;3.39;72.12;98783.06;4953635;28;20027;-74
2020/12/07 02:13:11;;;;;;;3.85;1.88;;;;;;;3.38;72.69;98782.25;4957078;28;20019;-75
2020/12/07 02:15:40;;;;;;;1.20;1.10;;;;;;;3.36;72.86;98778.19;4949823;28;20046;-74
2020/12/07 02:18:22;;;;;;;;;;;;;;;;;;;;;
2020/12/07 02:20:49;;;;;;;0.88;0.88;;;;;;;3.39;72.40;98772.25;4967334;28;20047;-74
2020/12/07 02:23:15;;;;;;;1.00;0.98;;;;;;;3.38;72.54;98776.84;4964611;28;20043;-74
2020/12/07 02:25:41;;;;;;;1.77;1.67;;;;;;;3.34;73.09;98769.53;4954703;28;20023;-74
2020/12/07 02:28:06;;;;;;;1.95;1.80;;;;;;;3.28;73.00;98758.69;4963795;28;20027;-75
2020/12/07 02:30:33;;;;;;;1.52;1.42;;;;;;;3.26;72.54;98752.72;4967433;28;20031;-75
2020/12/07 02:32:59;;;;;;;3.28;2.97;;;;;;;3.18;72.60;98749.69;4954023;28;20026;-75
2020/12/07 02:35:27;;;;;;;3.00;2.80;;;;;;;3.07;72.39;98738.81;4971316;28;20038;-75
2020/12/07 02:37:54;;;;;;;3.08;2.78;;;;;;;3.14;73.44;98750.22;4969807;28;20027;-74
2020/12/07 02:40:20;;;;;;;2.53;2.42;;;;;;;3.03;73.22;98732.28;4955898;28;20166;-75
2020/12/07 02:42:48;;;;;;;3.08;2.88;;;;;;;3.05;73.24;98732.84;4949924;28;20478;-74
2020/12/07 02:45:15;;;;;;;3.05;2.85;;;;;;;3.07;73.47;98735.31;4956031;28;20171;-75
2020/12/07 02:47:41;;;;;;;3.42;2.85;;;;;;;3.05;72.95;98734.72;4958883;28;20027;-72
2020/12/07 02:50:08;;;;;;;3.20;3.00;;;;;;;3.00;72.33;98737.41;4956286;28;20205;-71
2020/12/07 02:52:34;;;;;;;2.92;2.72;;;;;;;2.95;72.92;98736.28;4975610;28;20018;-71
2020/12/07 02:55:01;;;;;;;2.33;2.22;;;;;;;2.99;73.41;98735.75;4951377;28;20035;-72
2020/12/07 02:57:27;;;;;;;3.13;2.85;;;;;;;2.97;72.78;98725.22;4963908;28;20102;-72
2020/12/07 02:59:53;;;;;;;3.17;2.72;;;;;;;2.97;73.26;98719.81;4971188;28;20061;-73
2020/12/07 03:02:19;;;;;;;2.60;2.40;;;;;;;2.94;72.78;98718.44;4958788;28;20113;-74
2020/12/07 03:04:44;;;;;;;3.00;2.42;;;;;;;2.93;72.49;98711.41;4972748;28;20066;-74
2020/12/07 03:07:11;;;;;;;2.63;2.53;;;;;;;2.90;72.99;98708.41;4971729;28;20030;-75
2020/12/07 03:09:36;;;;;;;1.60;1.50;;;;;;;2.85;73.17;98706.50;4973286;28;20027;-74
2020/12/07 03:12:05;;;;;;;2.03;1.83;;;;;;;2.83;73.72;98699.72;4971314;28;20031;-74
2020/12/07 03:14:31;;;;;;;1.60;1.50;;;;;;;2.79;73.80;98694.03;4968819;28;20018;-74
2020/12/07 03:16:56;;;;;;;1.40;1.30;;;;;;;2.77;73.46;98697.00;4965370;28;20035;-74
2020/12/07 03:19:22;;;;;;;1.45;1.35;;;;;;;2.72;73.78;98690.72;4943169;28;20158;-76
2020/12/07 03:21:47;;;;;;;1.67;1.10;;;;;;;2.71;72.88;98691.78;4967052;28;20041;-74
2020/12/07 03:24:13;;;;;;;1.15;1.10;;;;;;;2.67;72.83;98696.06;4960675;28;20129;-75
2020/12/07 03:26:39;;;;;;;0.80;0.80;;;;;;;2.61;73.90;98698.75;4965681;28;20031;-75
2020/12/07 03:29:05;;;;;;;1.08;0.90;;;;;;;2.55;73.10;98691.66;4954097;28;20831;-75
2020/12/07 03:31:36;;;;;;;1.00;1.00;;;;;;;2.46;73.84;98690.50;4957989;28;20114;-75
2020/12/07 03:34:03;;;;;;;0.73;0.73;;;;;;;2.42;73.24;98692.91;4957336;28;20016;-75
2020/12/07 03:36:29;;;;;;;0.40;0.40;;;;;;;2.37;73.77;98692.03;4971322;28;20031;-76
2020/12/07 03:38:55;;;;;;;0.93;0.93;;;;;;;2.35;73.69;98688.75;4962281;28;20035;-76
2020/12/07 03:41:21;;;;;;;0.90;0.68;;;;;;;2.34;73.36;98687.94;4955204;28;20041;-74
2020/12/07 03:43:46;;;;;;;0.35;0.32;;;;;;;2.31;73.35;98684.94;4970512;28;20492;-75
2020/12/07 03:46:12;;;;;;;0.90;0.90;;;;;;;2.29;73.98;98684.38;4975707;28;20039;-74
2020/12/07 03:48:38;;;;;;;0.95;0.95;;;;;;;2.21;74.53;98678.38;4958661;28;20058;-74
2020/12/07 03:51:05;;;;;;;0.68;0.68;;;;;;;2.14;74.12;98683.16;4968025;28;20030;-74
2020/12/07 03:53:33;;;;;;;1.00;0.68;;;;;;;2.10;73.52;98676.63;4970308;28;20020;-75
2020/12/07 03:55:59;;;;;;;0.32;0.30;;;;;;;2.07;74.70;98682.53;4954802;28;20058;-75
2020/12/07 03:58:24;;;;;;;0.45;0.30;;;;;;;2.08;74.14;98678.78;4973384;28;20396;-75
2020/12/07 04:00:50;;;;;;;0.32;0.32;;;;;;;2.06;74.14;98675.53;4942450;28;20031;-76
2020/12/07 04:03:16;;;;;;;0.55;0.55;;;;;;;2.04;75.07;98677.66;4969906;28;20081;-75
2020/12/07 04:05:44;;;;;;;0.70;0.70;;;;;;;2.00;74.24;98681.91;4951776;28;20034;-76
2020/12/07 04:08:10;;;;;;;0.38;0.38;;;;;;;1.97;75.03;98677.03;4975986;28;20093;-73
2020/12/07 04:10:37;;;;;;;2.15;0.50;;;;;;;1.95;75.53;98679.16;4952988;28;20386;-72
2020/12/07 04:13:03;;;;;;;0.90;0.90;;;;;;;1.92;74.91;98681.28;4965586;28;20102;-74
2020/12/07 04:15:28;;;;;;;0.30;0.30;;;;;;;1.90;74.33;98672.66;4968632;28;20034;-72
2020/12/07 04:17:54;;;;;;;0.20;0.20;;;;;;;1.86;74.54;98668.81;4976702;28;20027;-72
2020/12/07 04:20:19;;;;;;;0.40;0.40;;;;;;;1.87;74.54;98673.16;4954647;28;20059;-72
2020/12/07 04:22:48;;;;;;;0.20;0.20;;;;;;;1.86;75.05;98668.81;4949234;28;20031;-73
2020/12/07 04:25:16;;;;;;;0.45;0.45;;;;;;;1.84;74.29;98673.66;4957765;28;20049;-72
2020/12/07 04:27:44;;;;;;;0.70;0.38;;;;;;;1.78;75.25;98671.16;4970823;28;20118;-75
2020/12/07 04:30:10;;;;;;;0.70;0.68;;;;;;;1.74;75.79;98662.75;4948421;28;20509;-74
2020/12/07 04:32:36;;;;;;;0.68;0.35;;;;;;;1.69;75.75;98660.00;4957471;28;20035;-74
2020/12/07 04:35:02;;;;;;;0.85;0.40;;;;;;;1.67;74.84;98662.13;4944737;28;20022;-74
2020/12/07 04:37:30;;;;;;;0.68;0.50;;;;;;;1.64;76.35;98668.03;4961269;28;20134;-73
2020/12/07 04:39:55;;;;;;;0.17;0.17;;;;;;;1.63;75.72;98667.19;4983731;28;20030;-74
2020/12/07 04:42:21;;;;;;;0.60;0.50;;;;;;;1.62;75.08;98664.75;4957816;28;20038;-74
2020/12/07 04:44:46;;;;;;;0.40;0.40;;;;;;;1.57;76.34;98663.63;4979009;28;20027;-74
2020/12/07 04:47:16;;;;;;;0.32;0.30;;;;;;;1.54;76.42;98669.50;4958689;28;20093;-74
2020/12/07 04:49:42;;;;;;;0.47;0.47;;;;;;;1.47;76.07;98658.09;4974618;28;20029;-74
2020/12/07 04:52:09;;;;;;;0.30;0.30;;;;;;;1.45;75.37;98649.47;4972848;28;20037;-74
2020/12/07 04:54:37;;;;;;;0.38;0.38;;;;;;;1.49;75.78;98655.97;4967721;28;20133;-74
2020/12/07 04:57:04;;;;;;;0.40;0.40;;;;;;;1.48;76.82;98665.13;4969901;28;20029;-74
2020/12/07 04:59:32;;;;;;;0.40;0.40;;;;;;;1.49;76.65;98661.38;4968169;28;20028;-75
2020/12/07 05:01:57;;;;;;;0.30;0.30;;;;;;;1.46;76.33;98656.50;4969305;28;20138;-74
2020/12/07 05:04:23;;;;;;;0.20;0.20;;;;;;;1.44;75.48;98653.22;4958078;28;20115;-74
2020/12/07 05:07:01;;;;;;;0.35;0.35;;;;;;;1.42;76.35;98649.97;4966409;28;20045;-72
2020/12/07 05:09:27;;;;;;;0.47;0.47;;;;;;;1.37;76.59;98647.19;4922131;29;20369;-73
2020/12/07 05:11:54;;;;;;;0.30;0.30;;;;;;;1.41;75.90;98659.09;4976986;28;20054;-75
2020/12/07 05:14:20;;;;;;;0.22;0.22;;;;;;;1.41;76.72;98647.53;4982155;28;20023;-76
2020/12/07 05:16:48;;;;;;;0.35;0.35;;;;;;;1.46;76.34;98639.50;4942216;28;20046;-74
2020/12/07 05:19:13;;;;;;;0.85;0.35;;;;;;;1.47;77.24;98635.75;4971747;28;20035;-74
2020/12/07 05:21:41;;;;;;;0.13;0.13;;;;;;;1.49;75.82;98641.69;4960217;28;20069;-70
2020/12/07 05:24:06;;;;;;;0.95;0.28;;;;;;;1.51;76.68;98634.97;4938509;29;20420;-71
2020/12/07 05:26:35;;;;;;;0.17;0.13;;;;;;;1.53;75.84;98627.47;4956554;28;20027;-70
2020/12/07 05:29:12;;;;;;;0.30;0.20;;;;;;;1.53;75.76;98627.47;4969325;28;20030;-71
2020/12/07 05:31:37;;;;;;;0.10;0.10;;;;;;;1.50;76.46;98630.66;4981133;23;20047;-71
2020/12/07 05:34:05;;;;;;;0.20;0.20;;;;;;;1.51;76.37;98629.59;4968579;28;20035;-70
2020/12/07 05:36:30;;;;;;;0.20;0.20;;;;;;;1.51;76.82;98632.28;4969009;28;20039;-71
2020/12/07 05:38:56;;;;;;;0.10;0.10;;;;;;;1.51;76.57;98631.50;4970641;28;20103;-71
2020/12/07 05:41:22;;;;;;;0.52;0.52;;;;;;;1.51;76.55;98631.50;4954258;28;20039;-70
2020/12/07 05:43:51;;;;;;;0.43;0.43;;;;;;;1.48;77.26;98632.00;4969004;28;20038;-70
2020/12/07 05:46:17;;;;;;;0.30;0.30;;;;;;;1.45;77.31;98632.50;4953005;28;20039;-69
2020/12/07 05:48:45;;;;;;;0.43;0.43;;;;;;;1.41;76.70;98637.56;4949909;28;20034;-69
2020/12/07 05:51:12;;;;;;;0.30;0.30;;;;;;;1.36;76.38;98637.50;4948606;28;20042;-68
2020/12/07 05:53:40;;;;;;;0.10;0.10;;;;;;;1.39;77.53;98643.19;4957809;28;20500;-70
2020/12/07 05:56:07;;;;;;;0.20;0.20;;;;;;;1.40;77.05;98644.00;4968652;28;20196;-71
2020/12/07 05:58:41;;;;;;;0.20;0.20;;;;;;;1.37;76.82;98641.81;4953905;28;20031;-75
2020/12/07 06:01:09;;;;;;;0.30;0.30;;;;;;;1.37;77.22;98636.41;4953579;28;20039;-74
2020/12/07 06:03:35;;;;;;;0.25;0.25;;;;;;;1.35;76.41;98627.78;4970365;28;20031;-74
2020/12/07 06:06:00;;;;;;;0.45;0.45;;;;;;;1.31;76.56;98627.44;4973990;28;20105;-74
2020/12/07 06:08:34;;;;;;;0.52;0.52;;;;;;;1.31;76.43;98635.53;4949787;28;20035;-76
2020/12/07 06:11:08;;;;;;;0.75;0.75;;;;;;;1.31;76.45;98637.41;4974302;28;20034;-76
2020/12/07 06:13:34;;;;;;;0.30;0.30;;;;;;;1.34;77.56;98636.91;4972721;28;20034;-76
2020/12/07 06:16:04;;;;;;;0.32;0.32;;;;;;;1.37;76.36;98633.72;4958932;28;20038;-78
2020/12/07 06:18:34;;;;;;;0.13;0.13;;;;;;;1.42;77.33;98633.81;4952524;28;20046;-77
2020/12/07 06:21:14;;;;;;;0.20;0.20;;;;;;;1.44;77.24;98628.16;4966946;28;20038;-78
2020/12/07 06:23:41;;;;;;;0.20;0.20;;;;;;;1.46;76.26;98624.16;4973838;28;20057;-75
2020/12/07 06:26:12;;;;;;;0.32;0.32;;;;;;;1.46;76.75;98632.25;4973620;28;20552;-76
2020/12/07 06:28:39;;;;;;;0.20;0.20;;;;;;;1.46;76.29;98640.31;4969930;28;20078;-71
2020/12/07 06:31:14;;;;;;;0.30;0.28;;;;;;;1.43;75.84;98632.75;4956461;28;20059;-72
2020/12/07 06:33:46;;;;;;;0.55;0.55;;;;;;;1.40;77.07;98635.91;4950718;28;20063;-72
2020/12/07 06:36:34;;;;;;;0.70;0.70;;;;;;;1.34;76.44;98631.53;4938993;28;20059;-73
2020/12/07 06:39:03;;;;;;;0.25;0.25;;;;;;;1.28;76.94;98621.75;4948426;28;20031;-70
2020/12/07 06:41:39;;;;;;;0.85;0.75;;;;;;;1.24;76.55;98616.03;4947666;28;20067;-70
2020/12/07 06:44:11;;;;;;;0.70;0.70;;;;;;;1.17;77.00;98623.50;4946596;28;20395;-71
2020/12/07 06:47:04;;;;;;;0.43;0.43;;;;;;;1.10;76.40;98621.00;4945411;28;20034;-71
2020/12/07 06:49:57;;;;;;;0.43;0.43;;;;;;;1.12;77.41;98618.03;4945482;28;20035;-72
2020/12/07 06:52:29;;;;;;;0.40;0.38;;;;;;;1.09;76.98;98613.16;4943454;28;20035;-71
2020/12/07 06:55:10;;;;;;;0.70;0.70;;;;;;;1.11;77.32;98606.47;4919282;29;20035;-73
2020/12/07 06:57:46;;;;;;;2.40;0.65;;;;;;;1.09;77.07;98605.88;4946429;28;20035;-69
2020/12/07 07:00:16;;;;;;;0.20;0.20;;;;;;;1.06;76.81;98601.00;4949376;28;20031;-70
2020/12/07 07:02:46;;;;;;;0.20;0.20;;;;;;;1.04;77.44;98595.88;4948734;28;20074;-69
2020/12/07 07:05:16;;;;;;;1.42;0.45;;;;;;;1.00;76.76;98596.63;4952016;28;20111;-71
2020/12/07 07:07:42;;;;;;;0.60;0.60;;;;;;;0.99;76.71;98603.91;4938627;28;20023;-70
2020/12/07 07:10:09;;;;;;;0.20;0.20;;;;;;;0.97;77.09;98597.94;4946616;28;20030;-70
2020/12/07 07:12:36;;;;;;;0.30;0.30;;;;;;;0.99;77.45;98592.28;4940619;28;20182;-68
2020/12/07 07:15:04;;;;;;;0.30;0.25;;;;;;;1.01;77.75;98596.38;4944352;28;20501;-70
2020/12/07 07:17:31;;;;;;;0.20;0.20;;;;;;;1.03;77.67;98596.94;4954794;28;20031;-70
2020/12/07 07:19:58;;;;;;;0.20;0.20;;;;;;;1.07;77.77;98594.56;4946705;28;20035;-69
2020/12/07 07:22:25;;;;;;;0.30;0.30;;;;;;;1.09;77.62;98589.75;4956862;28;20031;-69
2020/12/07 07:30:14;;;;;;;0.30;0.20;;;;;;;1.10;76.53;98599.44;4955239;28;20527;-71
2020/12/07 07:32:41;;;;;;;0.50;0.50;;;;;;;1.06;76.58;98590.25;4965387;28;20142;-72
2020/12/07 07:35:08;;;;;;;0.47;0.40;;;;;;;1.04;76.71;98589.69;4934074;28;20062;-71
2020/12/07 07:37:34;;;;;;;0.25;0.25;;;;;;;1.02;76.54;98594.47;4964640;28;20039;-72
2020/12/07 07:40:03;;;;;;;0.50;0.50;;;;;;;0.96;76.10;98592.78;4934339;28;20034;-75
2020/12/07 07:42:30;;;;;;;0.32;0.32;;;;;;;0.89;76.79;98586.75;4966512;28;20023;-76
2020/12/07 07:44:56;;;;;;;0.30;0.30;;;;;;;0.83;76.97;98591.25;4956765;28;20114;-76
2020/12/07 07:47:49;;;;;;;0.50;0.50;;;;;;;0.82;77.08;98601.22;4975320;28;20031;-77
2020/12/07 07:59:35;;;;;;;0.85;0.85;;;;;;;0.74;77.19;98590.88;4970667;28;20046;-76
2020/12/07 08:17:52;;;;;;;0.70;0.70;;;;;;;0.83;78.22;98605.53;4946994;28;20118;-70
2020/12/07 08:20:20;;;;;;;2.38;0.40;;;;;;;0.86;77.03;98602.34;4948231;28;20106;-71
2020/12/07 08:23:02;;;;;;;0.63;0.63;;;;;;;0.91;77.07;98600.81;4954836;28;20023;-72
2020/12/07 08:25:40;;;;;;;0.60;0.60;;;;;;;0.94;77.64;98603.00;4950866;28;20034;-70
2020/12/07 08:28:21;;;;;;;0.50;0.50;;;;;;;0.95;76.66;98602.75;4957538;28;20054;-72
2020/12/07 08:31:19;;;;;;;0.10;0.10;;;;;;;1.11;77.98;98601.09;4949670;28;20039;-71
2020/12/07 08:34:15;;;;;;;0.32;0.32;;;;;;;1.24;76.63;98599.88;4935892;28;20088;-72
2020/12/07 08:36:45;;;;;;;0.85;0.47;;;;;;;1.32;76.14;98604.03;4934373;28;20082;-72
2020/12/07 08:39:11;;;;;;;0.43;0.43;;;;;;;1.35;76.74;98596.25;4958244;28;20038;-73
2020/12/07 08:41:38;;;;;;;0.30;0.22;;;;;;;1.41;75.82;98607.91;4948009;28;20088;-73
2020/12/07 08:44:06;;;;;;;0.28;0.28;;;;;;;1.45;76.70;98600.97;4953461;28;20042;-73
2020/12/07 08:46:33;;;;;;;0.95;0.32;;;;;;;1.55;76.80;98600.28;4956887;28;20416;-74
2020/12/07 08:49:00;;;;;;;0.13;0.13;;;;;;;1.65;76.68;98605.78;4952392;28;20035;-72
2020/12/07 08:51:28;;;;;;;0.25;0.25;;;;;;;1.76;76.07;98600.53;4948311;28;20051;-73
2020/12/07 08:53:55;;;;;;;0.40;0.40;;;;;;;1.90;76.29;98605.25;4950856;28;20032;-75
2020/12/07 08:56:20;;;;;;;0.47;0.47;;;;;;;2.00;75.86;98601.84;4956914;28;20019;-74
2020/12/07 08:58:48;;;;;;;0.50;0.50;;;;;;;2.07;76.18;98607.88;4954816;28;20035;-78
2020/12/07 09:01:14;;;;;;;0.50;0.50;;;;;;;2.16;75.67;98610.06;4952876;28;20034;-74
2020/12/07 09:03:45;;;;;;;0.32;0.32;;;;;;;2.22;75.59;98601.78;4955792;28;20652;-75
2020/12/07 09:06:12;;;;;;;0.30;0.30;;;;;;;2.33;75.39;98612.69;4951837;28;20059;-74
2020/12/07 09:08:38;;;;;;;0.30;0.22;;;;;;;2.45;75.21;98607.91;4954419;28;20031;-75
2020/12/07 09:11:09;;;;;;;0.65;0.65;;;;;;;2.56;74.90;98615.03;4941100;28;20047;-73
2020/12/07 09:13:35;;;;;;;0.35;0.35;;;;;;;2.63;74.75;98617.50;4947667;28;20027;-73
2020/12/07 09:16:01;;;;;;;0.40;0.40;;;;;;;2.72;75.32;98620.56;4943028;28;20038;-75
2020/12/07 09:18:27;;;;;;;0.20;0.20;;;;;;;2.81;75.44;98619.00;4954618;28;20106;-75
2020/12/07 09:20:53;;;;;;;0.50;0.32;;;;;;;2.86;75.26;98619.03;4952768;28;20051;-75
2020/12/07 09:23:19;;;;;;;0.75;0.52;;;;;;;2.91;74.93;98621.75;4957652;28;20035;-75
2020/12/07 09:25:45;;;;;;;0.10;0.10;;;;;;;2.96;74.86;98623.66;4943884;28;20477;-75
2020/12/07 09:28:11;;;;;;;0.20;0.20;;;;;;;3.06;75.03;98625.63;4952556;28;20054;-77
2020/12/07 09:30:37;;;;;;;0.38;0.32;;;;;;;3.15;74.18;98634.88;4959736;28;20035;-77
2020/12/07 09:33:03;;;;;;;0.40;0.40;;;;;;;3.16;73.65;98620.28;4955133;28;20377;-77
2020/12/07 09:35:28;;;;;;;0.85;0.63;;;;;;;3.16;72.89;98616.78;4950482;28;20032;-76
2020/12/07 09:37:53;;;;;;;0.40;0.40;;;;;;;3.20;73.38;98620.56;4948860;28;20034;-74
2020/12/07 09:40:19;;;;;;;0.50;0.50;;;;;;;3.19;73.22;98625.16;4956528;28;20039;-75
2020/12/07 09:42:44;;;;;;;0.55;0.55;;;;;;;3.21;nan;98614.91;4918434;28;20031;-75
2020/12/07 09:45:10;;;;;;;0.35;0.35;;;;;;;3.23;72.87;98622.78;4948140;28;20090;-75
2020/12/07 09:47:36;;;;;;;0.20;0.20;;;;;;;3.25;73.36;98626.81;4938913;28;20180;-75
2020/12/07 09:50:07;;;;;;;0.20;0.20;;;;;;;3.34;72.83;98634.44;4942847;28;20039;-75
2020/12/07 09:52:33;;;;;;;1.48;0.80;;;;;;;3.28;71.78;98629.00;4956076;28;20031;-75
2020/12/07 09:54:58;;;;;;;0.50;0.50;;;;;;;3.25;72.47;98626.00;4950442;28;20034;-75
2020/12/07 09:57:24;;;;;;;0.60;0.38;;;;;;;3.23;71.97;98626.28;4949178;28;20032;-77
2020/12/07 09:59:50;;;;;;;0.40;0.40;;;;;;;3.15;72.24;98615.97;4938888;28;20032;-76
2020/12/07 10:02:18;;;;;;;0.80;0.80;;;;;;;3.15;72.12;98621.34;4956273;28;20042;-74
2020/12/07 10:04:44;;;;;;;0.30;0.30;;;;;;;3.13;72.00;98620.81;4951432;28;20067;-75
2020/12/07 10:07:10;;;;;;;0.57;0.47;;;;;;;3.09;71.90;98617.81;4950525;28;20038;-74
2020/12/07 10:09:36;;;;;;;0.52;0.52;;;;;;;3.14;72.54;98615.16;4944507;29;20042;-75
2020/12/07 10:12:01;;;;;;;0.95;0.60;;;;;;;3.14;71.93;98608.94;4952641;28;20039;-76
2020/12/07 10:14:27;;;;;;;0.50;0.50;;;;;;;3.14;73.32;98608.94;4957322;28;20426;-75
2020/12/07 10:16:52;;;;;;;0.90;0.80;;;;;;;3.16;72.18;98612.19;4953660;28;20105;-76
2020/12/07 10:19:24;;;;;;;0.65;0.60;;;;;;;3.14;72.42;98606.25;4960369;28;20082;-78
2020/12/07 10:22:04;;;;;;;3.25;0.40;;;;;;;3.21;73.06;98604.09;4952384;28;20465;-77
2020/12/07 10:24:33;;;;;;;0.50;0.50;;;;;;;3.22;71.77;98599.53;4941389;29;20478;-77
2020/12/07 10:26:59;;;;;;;0.40;0.40;;;;;;;3.30;72.55;98607.94;4957665;28;20050;-75
2020/12/07 10:29:24;;;;;;;0.50;0.40;;;;;;;3.39;72.43;98615.53;4953085;28;20039;-75
2020/12/07 10:31:56;;;;;;;1.02;1.00;;;;;;;3.47;72.64;98601.53;4958685;28;20146;-79
2020/12/07 10:34:25;;;;;;;0.75;0.70;;;;;;;3.65;72.13;98602.94;4961581;28;20062;-78
2020/12/07 10:36:51;;;;;;;1.23;1.13;;;;;;;3.75;72.59;98602.16;4951882;28;20465;-77
2020/12/07 10:39:37;;;;;;;0.55;0.55;;;;;;;3.87;71.45;98605.47;4953343;28;20042;-76
2020/12/07 10:42:02;;;;;;;1.52;1.40;;;;;;;3.80;71.38;98591.38;4944533;28;20560;-74
2020/12/07 10:44:35;;;;;;;1.10;1.10;;;;;;;3.88;70.80;98598.16;4955619;28;20044;-76
2020/12/07 10:47:01;;;;;;;2.78;1.10;;;;;;;3.77;70.82;98590.00;4938498;28;20078;-75
2020/12/07 10:49:26;;;;;;;0.90;0.90;;;;;;;3.86;70.89;98592.22;4955327;28;20035;-73
2020/12/07 10:51:59;;;;;;;0.93;0.70;;;;;;;3.85;71.49;98588.69;4936771;28;20023;-76
2020/12/07 10:54:24;;;;;;;0.98;0.98;;;;;;;3.94;71.18;98592.50;4954902;28;20032;-76
2020/12/07 10:56:50;;;;;;;1.40;1.30;;;;;;;3.99;70.40;98592.50;4951881;28;20073;-76
2020/12/07 10:59:18;;;;;;;0.90;0.90;;;;;;;4.05;70.44;98587.13;4952436;28;20055;-75
2020/12/07 11:01:45;;;;;;;0.80;0.80;;;;;;;4.03;70.55;98579.28;4947061;28;20102;-77
2020/12/07 11:04:11;;;;;;;0.90;0.75;;;;;;;4.05;69.96;98573.59;4952026;29;20034;-78
2020/12/07 11:06:41;;;;;;;0.40;0.40;;;;;;;4.11;70.57;98572.50;4943343;28;20031;-76
2020/12/07 11:09:09;;;;;;;0.88;0.88;;;;;;;4.27;70.52;98574.13;4957711;28;20035;-76
2020/12/07 11:11:35;;;;;;;1.65;1.55;;;;;;;4.36;70.49;98579.81;4961735;28;20039;-75
2020/12/07 11:14:01;;;;;;;1.40;1.30;;;;;;;4.47;70.33;98569.81;4944852;28;20031;-77
2020/12/07 11:16:26;;;;;;;1.13;1.13;;;;;;;4.57;69.72;98575.25;4954484;28;20027;-76
2020/12/07 11:18:52;;;;;;;1.30;1.30;;;;;;;4.67;69.66;98568.97;4952361;28;20833;-75
2020/12/07 11:21:18;;;;;;;1.42;1.33;;;;;;;4.81;68.98;98574.66;4960594;28;20027;-75
2020/12/07 11:23:46;;;;;;;1.23;1.23;;;;;;;4.82;68.29;98577.09;4946478;28;20032;-76
2020/12/07 11:26:16;;;;;;;0.82;0.82;;;;;;;4.85;68.45;98575.75;4950710;28;20067;-76
2020/12/07 11:28:41;;;;;;;1.55;1.45;;;;;;;4.87;68.72;98562.72;4956409;28;20019;-75
2020/12/07 11:31:12;;;;;;;0.90;0.90;;;;;;;4.92;68.49;98570.03;4955195;28;20066;-78
2020/12/07 11:33:38;;;;;;;2.00;1.50;;;;;;;4.91;68.07;98552.97;4957619;28;20031;-77
2020/12/07 11:36:04;;;;;;;13.38;3.75;;;;;;;4.93;67.99;98556.22;4959392;28;20028;-79
2020/12/07 11:38:36;;;;;;;4.15;2.97;;;;;;;4.92;67.54;98554.59;4954345;28;20027;-78
2020/12/07 11:46:31;;;;;;;0.98;0.98;;;;;;;5.06;67.54;98550.22;4955816;28;20043;-78
2020/12/07 11:48:57;;;;;;;1.08;1.08;;;;;;;5.05;67.42;98554.03;4953297;28;20030;-79
2020/12/07 11:51:27;;;;;;;1.90;1.48;;;;;;;5.01;67.30;98546.72;4956687;28;20035;-77
2020/12/07 11:53:55;;;;;;;0.73;0.73;;;;;;;4.93;67.20;98542.66;4951425;28;20035;-79
2020/12/07 11:56:35;;;;;;;1.70;1.60;;;;;;;4.94;67.07;98544.28;4963507;28;20485;-78
2020/12/07 11:59:01;;;;;;;1.45;0.60;;;;;;;4.98;67.79;98539.97;4958483;28;20027;-78
2020/12/07 12:01:38;;;;;;;1.40;1.40;;;;;;;5.10;67.45;98539.66;4956519;28;20103;-78
2020/12/07 12:04:07;;;;;;;0.82;0.82;;;;;;;5.17;67.32;98536.63;4959308;28;20043;-78
2020/12/07 12:06:37;;;;;;;0.95;0.82;;;;;;;5.23;67.33;98541.75;4966359;28;20043;-77
2020/12/07 12:09:10;;;;;;;0.90;0.90;;;;;;;5.33;67.56;98540.91;4931249;28;20102;-78
2020/12/07 12:11:36;;;;;;;0.80;0.65;;;;;;;5.38;67.65;98532.75;4949066;28;20051;-78
2020/12/07 12:14:04;;;;;;;0.98;0.98;;;;;;;5.44;67.28;98521.91;4945644;28;20522;-78
2020/12/07 12:16:30;;;;;;;1.10;1.00;;;;;;;5.54;67.50;98535.41;4951982;28;20039;-77
2020/12/07 12:18:56;;;;;;;1.17;1.17;;;;;;;5.53;66.85;98525.63;4960637;28;20039;-78
2020/12/07 12:21:24;;;;;;;0.80;0.80;;;;;;;5.52;67.26;98524.84;4952277;28;20039;-78
2020/12/07 12:23:49;;;;;;;0.50;0.50;;;;;;;5.56;67.13;98525.06;4954925;28;20041;-77